KOEO/OEO METAR and TAF weather

Enter ICAO airport designator
Station Type Date Time Source
KOEO METAR 2021/03/07 08:55 UTC NOAA

KOEO 070855Z AUTO 12006KT 10SM CLR 00/M08 A3023 RMK AO2 T10021079


Station Type Date Time Source
KOEO Decoded METAR 2021/03/07 08:55 UTC NOAA

Osceola, L O Simenstad Municipal Airport, WI, United States (KOEO) 45-18-31N 092-41-24W
Mar 07, 2021 - 03:55 AM EST / 2021.03.07 0855 UTC
Wind: from the ESE (120 degrees) at 7 MPH (6 KT):0
Visibility: 10 mile(s):0
Sky conditions: clear
Temperature: 31.6 F (-0.2 C)
Windchill: 24 F (-4 C):1
Dew Point: 17.8 F (-7.9 C)
Relative Humidity: 56%
Pressure (altimeter): 30.23 in. Hg (1023 hPa)
ob: KOEO 070855Z AUTO 12006KT 10SM CLR 00/M08 A3023 RMK AO2 T10021079
cycle: 9

Station Type Date Time Source
KOEO TAF UTC NOAA

Error!

Example: see airport list